sensor_id;sensor_type;location;lat;lon;timestamp;temperature;humidity
216;HTU21D;45701;48.81287245;9.14186865;2022-07-23T00:01:00;24.99;46.69
216;HTU21D;45701;48.81287245;9.14186865;2022-07-23T00:03:28;24.95;46.51
216;HTU21D;45701;48.81287245;9.14186865;2022-07-23T00:05:54;24.80;47.01
216;HTU21D;45701;48.81287245;9.14186865;2022-07-23T00:08:21;24.84;46.96
216;HTU21D;45701;48.81287245;9.14186865;2022-07-23T00:10:48;24.77;48.15
216;HTU21D;45701;48.81287245;9.14186865;2022-07-23T00:13:14;24.79;47.78
216;HTU21D;45701;48.81287245;9.14186865;2022-07-23T00:15:41;24.75;47.76
216;HTU21D;45701;48.81287245;9.14186865;2022-07-23T00:18:08;24.75;48.40
216;HTU21D;45701;48.81287245;9.14186865;2022-07-23T00:20:36;24.70;48.49
216;HTU21D;45701;48.81287245;9.14186865;2022-07-23T00:23:03;24.68;48.25
216;HTU21D;45701;48.81287245;9.14186865;2022-07-23T00:25:29;24.65;48.53
216;HTU21D;45701;48.81287245;9.14186865;2022-07-23T00:27:56;24.57;48.76
216;HTU21D;45701;48.81287245;9.14186865;2022-07-23T00:30:23;24.60;49.24
216;HTU21D;45701;48.81287245;9.14186865;2022-07-23T00:32:51;24.57;49.05
216;HTU21D;45701;48.81287245;9.14186865;2022-07-23T00:35:20;24.49;49.66
216;HTU21D;45701;48.81287245;9.14186865;2022-07-23T00:37:48;24.32;50.76
216;HTU21D;45701;48.81287245;9.14186865;2022-07-23T00:40:15;24.27;50.27
216;HTU21D;45701;48.81287245;9.14186865;2022-07-23T00:42:42;24.36;50.69
216;HTU21D;45701;48.81287245;9.14186865;2022-07-23T00:45:09;24.35;52.07
216;HTU21D;45701;48.81287245;9.14186865;2022-07-23T00:47:36;24.30;52.55
216;HTU21D;45701;48.81287245;9.14186865;2022-07-23T00:50:05;24.14;53.14
216;HTU21D;45701;48.81287245;9.14186865;2022-07-23T00:52:33;24.02;53.08
216;HTU21D;45701;48.81287245;9.14186865;2022-07-23T00:55:01;23.91;53.45
216;HTU21D;45701;48.81287245;9.14186865;2022-07-23T00:57:28;23.92;53.07
216;HTU21D;45701;48.81287245;9.14186865;2022-07-23T00:59:55;23.88;51.99
216;HTU21D;45701;48.81287245;9.14186865;2022-07-23T01:02:23;23.87;52.04
216;HTU21D;45701;48.81287245;9.14186865;2022-07-23T01:04:50;23.91;52.01
216;HTU21D;45701;48.81287245;9.14186865;2022-07-23T01:07:17;23.91;52.06
216;HTU21D;45701;48.81287245;9.14186865;2022-07-23T01:09:45;23.92;52.48
216;HTU21D;45701;48.81287245;9.14186865;2022-07-23T01:12:13;23.97;51.43
216;HTU21D;45701;48.81287245;9.14186865;2022-07-23T01:14:40;23.95;51.91
216;HTU21D;45701;48.81287245;9.14186865;2022-07-23T01:17:07;23.87;52.17
216;HTU21D;45701;48.81287245;9.14186865;2022-07-23T01:19:33;23.79;52.46
216;HTU21D;45701;48.81287245;9.14186865;2022-07-23T01:22:03;23.61;52.89
216;HTU21D;45701;48.81287245;9.14186865;2022-07-23T01:24:31;23.56;53.72
216;HTU21D;45701;48.81287245;9.14186865;2022-07-23T01:27:02;23.71;52.85
216;HTU21D;45701;48.81287245;9.14186865;2022-07-23T01:29:30;23.68;53.27
216;HTU21D;45701;48.81287245;9.14186865;2022-07-23T01:32:01;23.72;53.04
216;HTU21D;45701;48.81287245;9.14186865;2022-07-23T01:34:28;23.73;53.27
216;HTU21D;45701;48.81287245;9.14186865;2022-07-23T01:36:55;23.69;53.18
216;HTU21D;45701;48.81287245;9.14186865;2022-07-23T01:39:22;23.71;53.17
216;HTU21D;45701;48.81287245;9.14186865;2022-07-23T01:41:52;23.45;54.10
216;HTU21D;45701;48.81287245;9.14186865;2022-07-23T01:44:20;23.30;54.69
216;HTU21D;45701;48.81287245;9.14186865;2022-07-23T01:46:47;23.34;54.42
216;HTU21D;45701;48.81287245;9.14186865;2022-07-23T01:49:15;23.45;53.77
216;HTU21D;45701;48.81287245;9.14186865;2022-07-23T01:51:48;23.54;53.56
216;HTU21D;45701;48.81287245;9.14186865;2022-07-23T01:54:40;23.23;54.63
216;HTU21D;45701;48.81287245;9.14186865;2022-07-23T01:57:09;22.98;55.68
216;HTU21D;45701;48.81287245;9.14186865;2022-07-23T01:59:36;22.90;56.09
216;HTU21D;45701;48.81287245;9.14186865;2022-07-23T02:02:04;22.83;56.17
216;HTU21D;45701;48.81287245;9.14186865;2022-07-23T02:04:31;23.08;56.38
216;HTU21D;45701;48.81287245;9.14186865;2022-07-23T02:07:00;23.14;56.13
216;HTU21D;45701;48.81287245;9.14186865;2022-07-23T02:09:27;23.20;55.48
216;HTU21D;45701;48.81287245;9.14186865;2022-07-23T02:11:54;23.08;55.02
216;HTU21D;45701;48.81287245;9.14186865;2022-07-23T02:14:22;22.78;56.42
216;HTU21D;45701;48.81287245;9.14186865;2022-07-23T02:16:49;22.78;56.31
216;HTU21D;45701;48.81287245;9.14186865;2022-07-23T02:19:16;22.96;55.50
216;HTU21D;45701;48.81287245;9.14186865;2022-07-23T02:21:42;23.07;55.17
216;HTU21D;45701;48.81287245;9.14186865;2022-07-23T02:24:09;22.80;56.73
216;HTU21D;45701;48.81287245;9.14186865;2022-07-23T02:26:37;22.72;56.82
216;HTU21D;45701;48.81287245;9.14186865;2022-07-23T02:29:05;22.80;57.97
216;HTU21D;45701;48.81287245;9.14186865;2022-07-23T02:31:33;22.84;57.03
216;HTU21D;45701;48.81287245;9.14186865;2022-07-23T02:34:01;22.83;57.19
216;HTU21D;45701;48.81287245;9.14186865;2022-07-23T02:36:28;22.85;56.99
216;HTU21D;45701;48.81287245;9.14186865;2022-07-23T02:38:55;22.48;58.48
216;HTU21D;45701;48.81287245;9.14186865;2022-07-23T02:41:23;22.32;59.44
216;HTU21D;45701;48.81287245;9.14186865;2022-07-23T02:43:50;22.20;59.40
216;HTU21D;45701;48.81287245;9.14186865;2022-07-23T02:46:16;22.40;58.42
216;HTU21D;45701;48.81287245;9.14186865;2022-07-23T02:48:44;22.44;58.63
216;HTU21D;45701;48.81287245;9.14186865;2022-07-23T02:51:11;22.53;59.01
216;HTU21D;45701;48.81287245;9.14186865;2022-07-23T02:53:42;22.40;59.01
216;HTU21D;45701;48.81287245;9.14186865;2022-07-23T02:56:09;22.41;59.33
216;HTU21D;45701;48.81287245;9.14186865;2022-07-23T02:58:36;22.47;59.29
216;HTU21D;45701;48.81287245;9.14186865;2022-07-23T03:01:03;22.46;59.16
216;HTU21D;45701;48.81287245;9.14186865;2022-07-23T03:03:29;22.34;59.51
216;HTU21D;45701;48.81287245;9.14186865;2022-07-23T03:05:57;22.49;59.20
216;HTU21D;45701;48.81287245;9.14186865;2022-07-23T03:08:24;22.37;59.61
216;HTU21D;45701;48.81287245;9.14186865;2022-07-23T03:10:51;22.27;60.38
216;HTU21D;45701;48.81287245;9.14186865;2022-07-23T03:13:18;22.42;59.27
216;HTU21D;45701;48.81287245;9.14186865;2022-07-23T03:15:45;22.62;58.08
216;HTU21D;45701;48.81287245;9.14186865;2022-07-23T03:18:12;22.76;57.51
216;HTU21D;45701;48.81287245;9.14186865;2022-07-23T03:20:39;22.81;57.41
216;HTU21D;45701;48.81287245;9.14186865;2022-07-23T03:23:07;22.81;58.00
216;HTU21D;45701;48.81287245;9.14186865;2022-07-23T03:25:34;22.67;58.45
216;HTU21D;45701;48.81287245;9.14186865;2022-07-23T03:28:00;22.78;59.11
216;HTU21D;45701;48.81287245;9.14186865;2022-07-23T03:30:28;22.77;59.00
216;HTU21D;45701;48.81287245;9.14186865;2022-07-23T03:32:55;22.71;59.03
216;HTU21D;45701;48.81287245;9.14186865;2022-07-23T03:35:22;22.71;59.19
216;HTU21D;45701;48.81287245;9.14186865;2022-07-23T03:38:03;22.65;59.54
216;HTU21D;45701;48.81287245;9.14186865;2022-07-23T03:40:31;22.56;59.45
216;HTU21D;45701;48.81287245;9.14186865;2022-07-23T03:42:58;22.62;59.21
216;HTU21D;45701;48.81287245;9.14186865;2022-07-23T03:45:25;22.48;59.86
216;HTU21D;45701;48.81287245;9.14186865;2022-07-23T03:47:51;22.02;61.31
216;HTU21D;45701;48.81287245;9.14186865;2022-07-23T03:50:18;22.04;61.65
216;HTU21D;45701;48.81287245;9.14186865;2022-07-23T03:52:45;21.79;63.32
216;HTU21D;45701;48.81287245;9.14186865;2022-07-23T03:55:12;21.62;63.59
216;HTU21D;45701;48.81287245;9.14186865;2022-07-23T03:57:41;21.53;64.01
216;HTU21D;45701;48.81287245;9.14186865;2022-07-23T04:00:09;21.55;64.08
216;HTU21D;45701;48.81287245;9.14186865;2022-07-23T04:02:43;21.83;63.80
216;HTU21D;45701;48.81287245;9.14186865;2022-07-23T04:05:11;22.04;62.90
216;HTU21D;45701;48.81287245;9.14186865;2022-07-23T04:07:40;22.13;62.12
216;HTU21D;45701;48.81287245;9.14186865;2022-07-23T04:10:07;22.18;61.05
216;HTU21D;45701;48.81287245;9.14186865;2022-07-23T04:12:34;22.27;60.56
216;HTU21D;45701;48.81287245;9.14186865;2022-07-23T04:15:04;22.35;59.93
216;HTU21D;45701;48.81287245;9.14186865;2022-07-23T04:17:31;22.03;61.32
216;HTU21D;45701;48.81287245;9.14186865;2022-07-23T04:19:58;22.06;61.73
216;HTU21D;45701;48.81287245;9.14186865;2022-07-23T04:22:30;22.19;61.86
216;HTU21D;45701;48.81287245;9.14186865;2022-07-23T04:24:57;22.40;62.05
216;HTU21D;45701;48.81287245;9.14186865;2022-07-23T04:27:23;22.38;61.02
216;HTU21D;45701;48.81287245;9.14186865;2022-07-23T04:29:50;22.51;59.81
216;HTU21D;45701;48.81287245;9.14186865;2022-07-23T04:32:18;22.56;58.31
216;HTU21D;45701;48.81287245;9.14186865;2022-07-23T04:34:45;22.32;59.54
216;HTU21D;45701;48.81287245;9.14186865;2022-07-23T04:37:12;22.53;59.31
216;HTU21D;45701;48.81287245;9.14186865;2022-07-23T04:39:39;22.61;58.60
216;HTU21D;45701;48.81287245;9.14186865;2022-07-23T04:42:05;22.50;59.68
216;HTU21D;45701;48.81287245;9.14186865;2022-07-23T04:44:32;22.54;58.73
216;HTU21D;45701;48.81287245;9.14186865;2022-07-23T04:47:01;22.37;60.02
216;HTU21D;45701;48.81287245;9.14186865;2022-07-23T04:49:29;22.35;59.92
216;HTU21D;45701;48.81287245;9.14186865;2022-07-23T04:51:56;22.48;60.41
216;HTU21D;45701;48.81287245;9.14186865;2022-07-23T04:54:22;22.62;59.34
216;HTU21D;45701;48.81287245;9.14186865;2022-07-23T04:56:50;22.44;59.72
216;HTU21D;45701;48.81287245;9.14186865;2022-07-23T04:59:16;22.38;60.41
216;HTU21D;45701;48.81287245;9.14186865;2022-07-23T05:01:44;22.27;60.31
216;HTU21D;45701;48.81287245;9.14186865;2022-07-23T05:04:11;22.43;59.80
216;HTU21D;45701;48.81287245;9.14186865;2022-07-23T05:06:40;22.48;60.44
216;HTU21D;45701;48.81287245;9.14186865;2022-07-23T05:09:06;22.62;60.45
216;HTU21D;45701;48.81287245;9.14186865;2022-07-23T05:11:33;22.72;59.77
216;HTU21D;45701;48.81287245;9.14186865;2022-07-23T05:14:00;22.82;57.68
216;HTU21D;45701;48.81287245;9.14186865;2022-07-23T05:16:28;22.85;58.40
216;HTU21D;45701;48.81287245;9.14186865;2022-07-23T05:18:59;22.92;58.33
216;HTU21D;45701;48.81287245;9.14186865;2022-07-23T05:21:26;22.86;57.85
216;HTU21D;45701;48.81287245;9.14186865;2022-07-23T05:23:56;22.63;59.53
216;HTU21D;45701;48.81287245;9.14186865;2022-07-23T05:26:22;22.55;59.77
216;HTU21D;45701;48.81287245;9.14186865;2022-07-23T05:28:49;22.68;58.73
216;HTU21D;45701;48.81287245;9.14186865;2022-07-23T05:31:18;22.98;59.16
216;HTU21D;45701;48.81287245;9.14186865;2022-07-23T05:33:46;23.08;57.44
216;HTU21D;45701;48.81287245;9.14186865;2022-07-23T05:36:13;22.93;58.19
216;HTU21D;45701;48.81287245;9.14186865;2022-07-23T05:38:47;23.00;58.00
216;HTU21D;45701;48.81287245;9.14186865;2022-07-23T05:41:15;23.13;57.94
216;HTU21D;45701;48.81287245;9.14186865;2022-07-23T05:43:42;23.10;56.54
216;HTU21D;45701;48.81287245;9.14186865;2022-07-23T05:46:10;23.36;58.43
216;HTU21D;45701;48.81287245;9.14186865;2022-07-23T05:48:40;23.37;56.41
216;HTU21D;45701;48.81287245;9.14186865;2022-07-23T05:51:19;23.43;55.91
216;HTU21D;45701;48.81287245;9.14186865;2022-07-23T05:53:46;23.46;56.01
216;HTU21D;45701;48.81287245;9.14186865;2022-07-23T05:56:19;23.45;56.48
216;HTU21D;45701;48.81287245;9.14186865;2022-07-23T05:58:46;23.54;55.46
216;HTU21D;45701;48.81287245;9.14186865;2022-07-23T06:01:15;23.35;57.47
216;HTU21D;45701;48.81287245;9.14186865;2022-07-23T06:03:55;23.24;56.54
216;HTU21D;45701;48.81287245;9.14186865;2022-07-23T06:06:27;23.29;56.88
216;HTU21D;45701;48.81287245;9.14186865;2022-07-23T06:08:53;23.17;57.28
216;HTU21D;45701;48.81287245;9.14186865;2022-07-23T06:11:22;23.41;56.40
216;HTU21D;45701;48.81287245;9.14186865;2022-07-23T06:13:48;23.37;57.16
216;HTU21D;45701;48.81287245;9.14186865;2022-07-23T06:16:16;23.14;57.34
216;HTU21D;45701;48.81287245;9.14186865;2022-07-23T06:18:45;23.22;57.39
216;HTU21D;45701;48.81287245;9.14186865;2022-07-23T06:21:11;23.34;56.84
216;HTU21D;45701;48.81287245;9.14186865;2022-07-23T06:23:38;23.32;57.84
216;HTU21D;45701;48.81287245;9.14186865;2022-07-23T06:26:05;23.44;57.05
216;HTU21D;45701;48.81287245;9.14186865;2022-07-23T06:28:33;23.22;57.00
216;HTU21D;45701;48.81287245;9.14186865;2022-07-23T06:30:59;23.18;57.42
216;HTU21D;45701;48.81287245;9.14186865;2022-07-23T06:33:26;23.00;56.70
216;HTU21D;45701;48.81287245;9.14186865;2022-07-23T06:35:53;22.85;56.75
216;HTU21D;45701;48.81287245;9.14186865;2022-07-23T06:38:20;23.01;57.77
216;HTU21D;45701;48.81287245;9.14186865;2022-07-23T06:40:47;23.26;54.18
216;HTU21D;45701;48.81287245;9.14186865;2022-07-23T06:43:14;23.44;53.90
216;HTU21D;45701;48.81287245;9.14186865;2022-07-23T06:45:45;23.52;56.88
216;HTU21D;45701;48.81287245;9.14186865;2022-07-23T06:48:11;23.74;52.97
216;HTU21D;45701;48.81287245;9.14186865;2022-07-23T06:50:38;23.52;54.27
216;HTU21D;45701;48.81287245;9.14186865;2022-07-23T06:53:05;23.22;54.91
216;HTU21D;45701;48.81287245;9.14186865;2022-07-23T06:55:31;22.95;56.13
216;HTU21D;45701;48.81287245;9.14186865;2022-07-23T06:58:01;22.75;56.57
216;HTU21D;45701;48.81287245;9.14186865;2022-07-23T07:00:27;22.68;57.71
216;HTU21D;45701;48.81287245;9.14186865;2022-07-23T07:02:55;22.90;56.72
216;HTU21D;45701;48.81287245;9.14186865;2022-07-23T07:05:22;22.53;58.34
216;HTU21D;45701;48.81287245;9.14186865;2022-07-23T07:07:50;22.54;57.85
216;HTU21D;45701;48.81287245;9.14186865;2022-07-23T07:10:17;22.11;59.99
216;HTU21D;45701;48.81287245;9.14186865;2022-07-23T07:12:44;22.57;59.57
216;HTU21D;45701;48.81287245;9.14186865;2022-07-23T07:15:10;22.49;58.92
216;HTU21D;45701;48.81287245;9.14186865;2022-07-23T07:17:38;22.34;60.28
216;HTU21D;45701;48.81287245;9.14186865;2022-07-23T07:20:07;22.21;61.03
216;HTU21D;45701;48.81287245;9.14186865;2022-07-23T07:22:34;22.03;62.21
216;HTU21D;45701;48.81287245;9.14186865;2022-07-23T07:25:00;21.78;63.81
216;HTU21D;45701;48.81287245;9.14186865;2022-07-23T07:27:27;22.03;65.23
216;HTU21D;45701;48.81287245;9.14186865;2022-07-23T07:29:54;22.29;65.42
216;HTU21D;45701;48.81287245;9.14186865;2022-07-23T07:32:20;22.28;67.84
216;HTU21D;45701;48.81287245;9.14186865;2022-07-23T07:34:47;21.73;70.18
216;HTU21D;45701;48.81287245;9.14186865;2022-07-23T07:37:15;21.62;71.72
216;HTU21D;45701;48.81287245;9.14186865;2022-07-23T07:39:42;21.67;71.81
216;HTU21D;45701;48.81287245;9.14186865;2022-07-23T07:42:09;21.64;70.41
216;HTU21D;45701;48.81287245;9.14186865;2022-07-23T07:44:35;21.66;70.11
216;HTU21D;45701;48.81287245;9.14186865;2022-07-23T07:47:02;21.98;68.56
216;HTU21D;45701;48.81287245;9.14186865;2022-07-23T07:49:29;21.96;69.78
216;HTU21D;45701;48.81287245;9.14186865;2022-07-23T07:51:56;21.83;69.91
216;HTU21D;45701;48.81287245;9.14186865;2022-07-23T07:54:24;21.87;69.12
216;HTU21D;45701;48.81287245;9.14186865;2022-07-23T07:56:50;21.92;69.50
216;HTU21D;45701;48.81287245;9.14186865;2022-07-23T07:59:17;21.89;68.97
216;HTU21D;45701;48.81287245;9.14186865;2022-07-23T08:01:44;21.78;70.39
216;HTU21D;45701;48.81287245;9.14186865;2022-07-23T08:04:10;21.93;69.83
216;HTU21D;45701;48.81287245;9.14186865;2022-07-23T08:06:37;22.05;70.21
216;HTU21D;45701;48.81287245;9.14186865;2022-07-23T08:09:04;21.89;68.83
216;HTU21D;45701;48.81287245;9.14186865;2022-07-23T08:11:32;22.23;68.00
216;HTU21D;45701;48.81287245;9.14186865;2022-07-23T08:13:58;22.29;67.27
216;HTU21D;45701;48.81287245;9.14186865;2022-07-23T08:16:25;22.22;66.14
216;HTU21D;45701;48.81287245;9.14186865;2022-07-23T08:18:52;22.57;64.30
216;HTU21D;45701;48.81287245;9.14186865;2022-07-23T08:21:18;22.64;65.81
216;HTU21D;45701;48.81287245;9.14186865;2022-07-23T08:23:45;22.54;65.88
216;HTU21D;45701;48.81287245;9.14186865;2022-07-23T08:26:12;22.68;64.29
216;HTU21D;45701;48.81287245;9.14186865;2022-07-23T08:28:40;22.47;64.63
216;HTU21D;45701;48.81287245;9.14186865;2022-07-23T08:31:07;22.61;64.38
216;HTU21D;45701;48.81287245;9.14186865;2022-07-23T08:33:33;23.13;60.79
216;HTU21D;45701;48.81287245;9.14186865;2022-07-23T08:36:01;23.21;60.15
216;HTU21D;45701;48.81287245;9.14186865;2022-07-23T08:38:28;23.18;62.34
216;HTU21D;45701;48.81287245;9.14186865;2022-07-23T08:40:56;23.41;58.68
216;HTU21D;45701;48.81287245;9.14186865;2022-07-23T08:43:25;23.39;59.21
216;HTU21D;45701;48.81287245;9.14186865;2022-07-23T08:45:55;23.46;59.02
216;HTU21D;45701;48.81287245;9.14186865;2022-07-23T08:48:24;23.55;59.67
216;HTU21D;45701;48.81287245;9.14186865;2022-07-23T08:50:55;23.91;57.22
216;HTU21D;45701;48.81287245;9.14186865;2022-07-23T08:53:23;23.83;56.39
216;HTU21D;45701;48.81287245;9.14186865;2022-07-23T08:55:51;23.68;57.02
216;HTU21D;45701;48.81287245;9.14186865;2022-07-23T08:58:19;23.79;55.10
216;HTU21D;45701;48.81287245;9.14186865;2022-07-23T09:00:47;23.69;55.21
216;HTU21D;45701;48.81287245;9.14186865;2022-07-23T09:03:17;23.86;55.04
216;HTU21D;45701;48.81287245;9.14186865;2022-07-23T09:05:44;24.14;54.64
216;HTU21D;45701;48.81287245;9.14186865;2022-07-23T09:08:13;24.13;54.52
216;HTU21D;45701;48.81287245;9.14186865;2022-07-23T09:10:58;23.82;49.63
216;HTU21D;45701;48.81287245;9.14186865;2022-07-23T09:13:31;24.02;50.82
216;HTU21D;45701;48.81287245;9.14186865;2022-07-23T09:16:00;24.13;51.51
216;HTU21D;45701;48.81287245;9.14186865;2022-07-23T09:18:30;24.55;50.50
216;HTU21D;45701;48.81287245;9.14186865;2022-07-23T09:21:08;24.62;50.85
216;HTU21D;45701;48.81287245;9.14186865;2022-07-23T09:23:39;24.80;51.27
216;HTU21D;45701;48.81287245;9.14186865;2022-07-23T09:26:18;24.94;50.65
216;HTU21D;45701;48.81287245;9.14186865;2022-07-23T09:28:56;25.05;51.53
216;HTU21D;45701;48.81287245;9.14186865;2022-07-23T09:31:24;25.05;47.89
216;HTU21D;45701;48.81287245;9.14186865;2022-07-23T09:34:06;24.99;47.92
216;HTU21D;45701;48.81287245;9.14186865;2022-07-23T09:36:33;24.82;48.53
216;HTU21D;45701;48.81287245;9.14186865;2022-07-23T09:39:00;25.02;47.34
216;HTU21D;45701;48.81287245;9.14186865;2022-07-23T09:41:34;25.21;46.87
216;HTU21D;45701;48.81287245;9.14186865;2022-07-23T09:44:07;25.31;46.96
216;HTU21D;45701;48.81287245;9.14186865;2022-07-23T09:46:33;25.38;47.12
216;HTU21D;45701;48.81287245;9.14186865;2022-07-23T09:49:12;25.08;48.45
216;HTU21D;45701;48.81287245;9.14186865;2022-07-23T09:51:44;25.14;47.96
216;HTU21D;45701;48.81287245;9.14186865;2022-07-23T09:54:21;25.08;47.65
216;HTU21D;45701;48.81287245;9.14186865;2022-07-23T09:56:49;25.29;48.17
216;HTU21D;45701;48.81287245;9.14186865;2022-07-23T09:59:17;25.46;46.83
216;HTU21D;45701;48.81287245;9.14186865;2022-07-23T10:01:45;25.54;47.45
216;HTU21D;45701;48.81287245;9.14186865;2022-07-23T10:04:14;25.52;45.80
216;HTU21D;45701;48.81287245;9.14186865;2022-07-23T10:07:13;25.71;45.91
216;HTU21D;45701;48.81287245;9.14186865;2022-07-23T10:10:07;26.01;45.08
216;HTU21D;45701;48.81287245;9.14186865;2022-07-23T10:12:59;26.08;44.35
216;HTU21D;45701;48.81287245;9.14186865;2022-07-23T10:15:46;26.05;44.96
216;HTU21D;45701;48.81287245;9.14186865;2022-07-23T10:18:13;26.23;46.31
216;HTU21D;45701;48.81287245;9.14186865;2022-07-23T10:20:42;26.26;40.31
216;HTU21D;45701;48.81287245;9.14186865;2022-07-23T10:23:16;26.40;42.61
216;HTU21D;45701;48.81287245;9.14186865;2022-07-23T10:25:50;26.41;42.48
216;HTU21D;45701;48.81287245;9.14186865;2022-07-23T10:28:30;25.98;43.45
216;HTU21D;45701;48.81287245;9.14186865;2022-07-23T10:31:02;26.03;43.29
216;HTU21D;45701;48.81287245;9.14186865;2022-07-23T10:33:41;26.04;43.84
216;HTU21D;45701;48.81287245;9.14186865;2022-07-23T10:36:19;26.18;44.09
216;HTU21D;45701;48.81287245;9.14186865;2022-07-23T10:38:52;26.32;44.63
216;HTU21D;45701;48.81287245;9.14186865;2022-07-23T10:41:31;26.21;44.89
216;HTU21D;45701;48.81287245;9.14186865;2022-07-23T10:44:09;26.46;45.32
216;HTU21D;45701;48.81287245;9.14186865;2022-07-23T10:46:36;26.69;44.79
216;HTU21D;45701;48.81287245;9.14186865;2022-07-23T10:49:24;27.01;45.27
216;HTU21D;45701;48.81287245;9.14186865;2022-07-23T10:52:21;26.71;42.27
216;HTU21D;45701;48.81287245;9.14186865;2022-07-23T10:54:50;26.54;42.63
216;HTU21D;45701;48.81287245;9.14186865;2022-07-23T10:57:18;26.56;43.22
216;HTU21D;45701;48.81287245;9.14186865;2022-07-23T11:00:16;26.78;43.53
216;HTU21D;45701;48.81287245;9.14186865;2022-07-23T11:02:47;27.07;42.89
216;HTU21D;45701;48.81287245;9.14186865;2022-07-23T11:05:15;27.17;41.02
216;HTU21D;45701;48.81287245;9.14186865;2022-07-23T11:08:13;27.10;41.36
216;HTU21D;45701;48.81287245;9.14186865;2022-07-23T11:10:44;27.11;41.57
216;HTU21D;45701;48.81287245;9.14186865;2022-07-23T11:13:28;26.90;43.15
216;HTU21D;45701;48.81287245;9.14186865;2022-07-23T11:16:24;26.68;44.15
216;HTU21D;45701;48.81287245;9.14186865;2022-07-23T11:19:07;26.81;44.06
216;HTU21D;45701;48.81287245;9.14186865;2022-07-23T11:21:48;26.86;42.69
216;HTU21D;45701;48.81287245;9.14186865;2022-07-23T11:24:24;26.78;43.72
216;HTU21D;45701;48.81287245;9.14186865;2022-07-23T11:26:54;26.84;44.19
216;HTU21D;45701;48.81287245;9.14186865;2022-07-23T11:29:48;26.79;44.13
216;HTU21D;45701;48.81287245;9.14186865;2022-07-23T11:32:37;26.63;44.03
216;HTU21D;45701;48.81287245;9.14186865;2022-07-23T11:35:23;26.75;44.88
216;HTU21D;45701;48.81287245;9.14186865;2022-07-23T11:37:51;26.61;44.38
216;HTU21D;45701;48.81287245;9.14186865;2022-07-23T11:40:25;26.63;44.67
216;HTU21D;45701;48.81287245;9.14186865;2022-07-23T11:42:55;27.01;43.62
216;HTU21D;45701;48.81287245;9.14186865;2022-07-23T11:45:23;27.32;43.06
216;HTU21D;45701;48.81287245;9.14186865;2022-07-23T11:47:50;27.11;43.15
216;HTU21D;45701;48.81287245;9.14186865;2022-07-23T11:50:17;27.42;42.88
216;HTU21D;45701;48.81287245;9.14186865;2022-07-23T11:52:44;28.06;41.54
216;HTU21D;45701;48.81287245;9.14186865;2022-07-23T11:55:11;27.90;41.65
216;HTU21D;45701;48.81287245;9.14186865;2022-07-23T11:57:43;28.53;40.29
216;HTU21D;45701;48.81287245;9.14186865;2022-07-23T12:00:13;29.05;39.55
216;HTU21D;45701;48.81287245;9.14186865;2022-07-23T12:02:40;28.76;39.33
216;HTU21D;45701;48.81287245;9.14186865;2022-07-23T12:05:11;28.75;39.84
216;HTU21D;45701;48.81287245;9.14186865;2022-07-23T12:07:39;28.25;39.79
216;HTU21D;45701;48.81287245;9.14186865;2022-07-23T12:10:10;28.73;39.40
216;HTU21D;45701;48.81287245;9.14186865;2022-07-23T12:12:39;28.70;37.89
216;HTU21D;45701;48.81287245;9.14186865;2022-07-23T12:15:09;28.83;38.88
216;HTU21D;45701;48.81287245;9.14186865;2022-07-23T12:17:39;28.94;37.77
216;HTU21D;45701;48.81287245;9.14186865;2022-07-23T12:20:09;29.12;37.72
216;HTU21D;45701;48.81287245;9.14186865;2022-07-23T12:22:40;28.89;37.45
216;HTU21D;45701;48.81287245;9.14186865;2022-07-23T12:25:09;29.15;36.87
216;HTU21D;45701;48.81287245;9.14186865;2022-07-23T12:27:36;29.27;36.77
216;HTU21D;45701;48.81287245;9.14186865;2022-07-23T12:30:17;29.22;37.11
216;HTU21D;45701;48.81287245;9.14186865;2022-07-23T12:32:46;29.24;37.79
216;HTU21D;45701;48.81287245;9.14186865;2022-07-23T12:35:13;30.00;36.77
216;HTU21D;45701;48.81287245;9.14186865;2022-07-23T12:37:42;29.70;36.97
216;HTU21D;45701;48.81287245;9.14186865;2022-07-23T12:40:23;29.34;38.87
216;HTU21D;45701;48.81287245;9.14186865;2022-07-23T12:42:52;29.67;37.51
216;HTU21D;45701;48.81287245;9.14186865;2022-07-23T12:45:20;29.54;39.20
216;HTU21D;45701;48.81287245;9.14186865;2022-07-23T12:47:58;29.56;38.38
216;HTU21D;45701;48.81287245;9.14186865;2022-07-23T12:50:43;28.83;38.84
216;HTU21D;45701;48.81287245;9.14186865;2022-07-23T12:53:12;29.24;38.46
216;HTU21D;45701;48.81287245;9.14186865;2022-07-23T12:55:41;29.68;39.01
216;HTU21D;45701;48.81287245;9.14186865;2022-07-23T12:58:11;28.59;39.97
216;HTU21D;45701;48.81287245;9.14186865;2022-07-23T13:00:56;28.88;39.13
216;HTU21D;45701;48.81287245;9.14186865;2022-07-23T13:03:26;28.47;39.04
216;HTU21D;45701;48.81287245;9.14186865;2022-07-23T13:05:54;28.73;38.40
216;HTU21D;45701;48.81287245;9.14186865;2022-07-23T13:08:21;28.62;38.24
216;HTU21D;45701;48.81287245;9.14186865;2022-07-23T13:10:49;28.52;37.86
216;HTU21D;45701;48.81287245;9.14186865;2022-07-23T13:13:19;27.88;39.46
216;HTU21D;45701;48.81287245;9.14186865;2022-07-23T13:15:46;28.01;39.52
216;HTU21D;45701;48.81287245;9.14186865;2022-07-23T13:18:14;28.18;39.50
216;HTU21D;45701;48.81287245;9.14186865;2022-07-23T13:20:42;28.67;37.58
216;HTU21D;45701;48.81287245;9.14186865;2022-07-23T13:23:09;29.06;37.29
216;HTU21D;45701;48.81287245;9.14186865;2022-07-23T13:25:36;29.18;36.63
216;HTU21D;45701;48.81287245;9.14186865;2022-07-23T13:28:03;28.93;37.42
216;HTU21D;45701;48.81287245;9.14186865;2022-07-23T13:30:30;28.21;40.00
216;HTU21D;45701;48.81287245;9.14186865;2022-07-23T13:32:56;28.04;41.10
216;HTU21D;45701;48.81287245;9.14186865;2022-07-23T13:35:24;28.24;40.02
216;HTU21D;45701;48.81287245;9.14186865;2022-07-23T13:37:51;28.25;39.52
216;HTU21D;45701;48.81287245;9.14186865;2022-07-23T13:40:18;28.61;38.52
216;HTU21D;45701;48.81287245;9.14186865;2022-07-23T13:42:45;28.55;38.67
216;HTU21D;45701;48.81287245;9.14186865;2022-07-23T13:45:11;28.50;39.78
216;HTU21D;45701;48.81287245;9.14186865;2022-07-23T13:47:38;28.61;39.46